Time;durP1;ratioP1;P1;durP2;ratioP2;P2;SDS_P1;SDS_P2;PMS_P1;PMS_P2;Temp;Humidity;BMP_temperature;BMP_pressure;BME280_temperature;BME280_humidity;BME280_pressure;Samples;Min_cycle;Max_cycle;Signal;HPM_P1;HPM_P2
2022/10/23 00:01:27;;;;;;;17.25;9.57;;;9.60;99.90;;;;;;5010617;28;20060;-72
2022/10/23 00:03:58;;;;;;;18.23;9.43;;;9.60;99.90;;;;;;5025570;28;20072;-72
2022/10/23 00:06:24;;;;;;;24.40;9.77;;;9.60;99.90;;;;;;5011781;28;20644;-72
2022/10/23 00:08:50;;;;;;;20.60;10.25;;;9.60;99.90;;;;;;5010494;28;20382;-72
2022/10/23 00:11:19;;;;;;;19.63;8.57;;;9.60;99.90;;;;;;5026971;28;20550;-72
2022/10/23 00:13:46;;;;;;;20.83;9.57;;;9.70;99.90;;;;;;5025065;28;20174;-72
2022/10/23 00:16:12;;;;;;;25.38;9.88;;;9.70;99.90;;;;;;5027152;28;20369;-72
2022/10/23 00:18:39;;;;;;;27.33;10.40;;;9.70;99.90;;;;;;4994378;28;20442;-72
2022/10/23 00:21:06;;;;;;;23.10;10.20;;;9.70;99.90;;;;;;5027018;28;20768;-72
2022/10/23 00:23:32;;;;;;;18.67;8.70;;;9.70;99.90;;;;;;5008946;28;20284;-72
2022/10/23 00:25:59;;;;;;;21.50;9.97;;;9.70;99.90;;;;;;5010515;28;20287;-72
2022/10/23 00:28:24;;;;;;;20.80;9.77;;;9.70;99.90;;;;;;5010437;28;20120;-72
2022/10/23 00:30:50;;;;;;;21.57;9.73;;;9.60;99.90;;;;;;5009395;28;20466;-72
2022/10/23 00:33:16;;;;;;;15.87;9.30;;;9.60;99.90;;;;;;5009412;28;20049;-72
2022/10/23 00:35:42;;;;;;;16.43;9.13;;;9.60;99.90;;;;;;5016683;28;20037;-72
2022/10/23 00:38:09;;;;;;;18.73;9.90;;;9.50;99.90;;;;;;5025963;28;20045;-72
2022/10/23 00:40:36;;;;;;;19.35;9.05;;;9.50;99.90;;;;;;5042401;28;20314;-72
2022/10/23 00:43:02;;;;;;;18.88;9.35;;;9.50;99.90;;;;;;5025272;28;20408;-72
2022/10/23 00:45:33;;;;;;;21.48;9.23;;;9.40;99.90;;;;;;5022851;28;20644;-72
2022/10/23 00:48:02;;;;;;;16.60;9.82;;;9.40;99.90;;;;;;5036906;28;20748;-72
2022/10/23 00:50:30;;;;;;;18.88;9.50;;;9.40;99.90;;;;;;5033361;28;20054;-72
2022/10/23 00:52:59;;;;;;;21.52;10.18;;;9.40;99.90;;;;;;5024790;28;20068;-72
2022/10/23 00:55:26;;;;;;;24.65;9.57;;;9.30;99.90;;;;;;5025945;28;20041;-71
2022/10/23 00:57:52;;;;;;;16.13;9.93;;;9.30;99.90;;;;;;5009223;28;20497;-72
2022/10/23 01:00:30;;;;;;;24.33;10.87;;;9.30;99.90;;;;;;5025738;28;20038;-72
2022/10/23 01:02:56;;;;;;;22.57;10.07;;;9.30;99.90;;;;;;5020301;28;20052;-72
2022/10/23 01:05:37;;;;;;;19.33;10.13;;;9.20;99.90;;;;;;5024807;28;20349;-71
2022/10/23 01:08:14;;;;;;;23.35;10.15;;;9.20;99.90;;;;;;5024760;28;20056;-71
2022/10/23 01:10:48;;;;;;;20.73;10.50;;;9.20;99.90;;;;;;5024661;28;20135;-72
2022/10/23 01:13:24;;;;;;;20.70;10.32;;;9.20;99.90;;;;;;5019047;28;20041;-72
2022/10/23 01:16:00;;;;;;;25.13;10.60;;;9.10;99.90;;;;;;5023938;28;20461;-71
2022/10/23 01:18:47;;;;;;;21.00;9.80;;;9.10;99.90;;;;;;5007858;28;20276;-72
2022/10/23 01:21:42;;;;;;;17.88;9.77;;;9.10;99.90;;;;;;5004602;28;20128;-72
2022/10/23 01:24:22;;;;;;;23.02;10.38;;;9.10;99.90;;;;;;5022909;28;20056;-72
2022/10/23 01:27:09;;;;;;;18.95;10.07;;;9.00;99.90;;;;;;5027145;28;20045;-72
2022/10/23 01:29:52;;;;;;;18.50;11.45;;;9.00;99.90;;;;;;5017511;28;20049;-72
2022/10/23 01:32:29;;;;;;;19.52;11.00;;;9.00;99.90;;;;;;5024746;28;20048;-71
2022/10/23 01:35:11;;;;;;;25.05;10.88;;;9.00;99.90;;;;;;5008187;28;20253;-72
2022/10/23 01:37:48;;;;;;;23.05;11.02;;;9.00;99.90;;;;;;5031610;28;20456;-72
2022/10/23 01:40:40;;;;;;;28.08;12.38;;;9.00;99.90;;;;;;5038969;28;20041;-72
2022/10/23 01:43:15;;;;;;;20.02;11.00;;;9.10;99.90;;;;;;5032039;28;20042;-71
2022/10/23 01:45:55;;;;;;;21.45;11.25;;;9.10;99.90;;;;;;5008714;28;20612;-71
2022/10/23 01:48:26;;;;;;;21.95;11.05;;;9.10;99.90;;;;;;5014858;28;20052;-72
2022/10/23 01:50:58;;;;;;;23.48;11.73;;;9.10;99.90;;;;;;5029309;28;20045;-71
2022/10/23 01:53:29;;;;;;;19.58;11.57;;;9.00;99.90;;;;;;5016116;28;20123;-71
2022/10/23 01:55:56;;;;;;;24.17;12.27;;;9.10;99.90;;;;;;5033640;28;20042;-72
2022/10/23 01:58:25;;;;;;;24.23;12.57;;;9.00;99.90;;;;;;5023462;28;20044;-72
2022/10/23 02:00:53;;;;;;;30.65;12.05;;;9.00;99.90;;;;;;5026480;28;20481;-71
2022/10/23 02:03:20;;;;;;;19.10;11.43;;;9.00;99.90;;;;;;5024841;28;20044;-72
2022/10/23 02:05:46;;;;;;;19.27;11.55;;;9.00;99.90;;;;;;5012741;28;20084;-72
2022/10/23 02:08:12;;;;;;;20.10;12.43;;;9.00;99.90;;;;;;5012002;28;20111;-72
2022/10/23 02:10:51;;;;;;;19.70;12.52;;;9.00;99.90;;;;;;5013473;28;20485;-72
2022/10/23 02:13:52;;;;;;;25.60;13.15;;;9.00;99.90;;;;;;5027939;28;20409;-72
2022/10/23 02:16:35;;;;;;;19.58;12.48;;;9.00;99.90;;;;;;5021969;28;20493;-72
2022/10/23 02:19:50;;;;;;;23.52;13.60;;;9.00;99.90;;;;;;5024518;28;20069;-72
2022/10/23 02:22:26;;;;;;;25.88;13.45;;;9.00;99.90;;;;;;5010602;28;20053;-72
2022/10/23 02:24:58;;;;;;;24.02;13.82;;;9.00;99.90;;;;;;5032657;28;20317;-72
2022/10/23 02:27:47;;;;;;;18.67;12.65;;;9.00;99.90;;;;;;5015634;28;20048;-72
2022/10/23 02:30:15;;;;;;;20.27;12.57;;;9.00;99.90;;;;;;5033504;28;20072;-72
2022/10/23 02:32:49;;;;;;;18.27;11.63;;;9.00;99.90;;;;;;5030805;28;20041;-72
2022/10/23 02:35:17;;;;;;;25.77;12.83;;;9.00;99.90;;;;;;5023707;28;20041;-72
2022/10/23 02:37:50;;;;;;;26.67;12.45;;;9.10;99.90;;;;;;5007949;28;20706;-72
2022/10/23 02:40:16;;;;;;;20.45;12.73;;;9.00;99.90;;;;;;5024516;28;20041;-72
2022/10/23 02:42:56;;;;;;;22.80;12.60;;;9.10;99.90;;;;;;5023167;28;20045;-72
2022/10/23 02:45:33;;;;;;;22.83;12.77;;;9.10;99.90;;;;;;5013579;28;20041;-71
2022/10/23 02:48:10;;;;;;;24.73;13.38;;;9.10;99.90;;;;;;5024545;28;20041;-72
2022/10/23 02:50:53;;;;;;;20.33;13.10;;;9.10;99.90;;;;;;5034955;28;20037;-72
2022/10/23 02:53:54;;;;;;;22.20;12.88;;;9.10;99.90;;;;;;5022822;28;20513;-72
2022/10/23 02:56:35;;;;;;;19.95;12.75;;;9.10;99.90;;;;;;5008133;28;20147;-72
2022/10/23 02:59:17;;;;;;;17.75;12.18;;;9.10;99.90;;;;;;5018393;28;20061;-72
2022/10/23 03:02:02;;;;;;;22.90;13.32;;;9.10;99.90;;;;;;5009116;28;20045;-72
2022/10/23 03:04:29;;;;;;;21.80;13.68;;;9.10;99.90;;;;;;5027138;28;20548;-72
2022/10/23 03:06:55;;;;;;;21.70;12.63;;;9.10;99.90;;;;;;5000711;28;20044;-72
2022/10/23 03:09:21;;;;;;;25.65;13.95;;;9.10;99.90;;;;;;5027773;28;20053;-72
2022/10/23 03:11:47;;;;;;;24.87;13.47;;;9.10;99.90;;;;;;5034148;28;20959;-72
2022/10/23 03:14:13;;;;;;;25.33;15.03;;;9.20;99.90;;;;;;5044742;28;20037;-72
2022/10/23 03:16:38;;;;;;;24.70;14.37;;;9.20;99.90;;;;;;5037793;28;20106;-72
2022/10/23 03:19:04;;;;;;;22.60;13.50;;;9.20;99.90;;;;;;5033072;28;20291;-72
2022/10/23 03:21:30;;;;;;;24.40;14.47;;;9.20;99.90;;;;;;5027688;28;20041;-72
2022/10/23 03:23:56;;;;;;;23.87;13.33;;;9.20;99.90;;;;;;5026863;28;20635;-72
2022/10/23 03:26:21;;;;;;;21.73;13.40;;;9.20;99.90;;;;;;4995797;28;20041;-72
2022/10/23 03:28:47;;;;;;;25.90;14.13;;;9.20;99.90;;;;;;5011715;28;20543;-72
2022/10/23 03:31:12;;;;;;;27.97;13.80;;;9.30;99.90;;;;;;5027656;28;20073;-72
2022/10/23 03:33:38;;;;;;;25.47;14.20;;;9.30;99.90;;;;;;4994083;28;20398;-72
2022/10/23 03:36:04;;;;;;;23.30;13.63;;;9.30;99.90;;;;;;5027401;28;20045;-72
2022/10/23 03:38:30;;;;;;;22.47;12.67;;;9.30;99.90;;;;;;5028534;28;20102;-72
2022/10/23 03:40:56;;;;;;;22.17;12.93;;;9.30;99.90;;;;;;5033028;28;20128;-72
2022/10/23 03:43:22;;;;;;;26.10;13.70;;;9.30;99.90;;;;;;5011102;28;20283;-72
2022/10/23 03:45:47;;;;;;;24.40;12.97;;;9.40;99.90;;;;;;5022265;28;20591;-72
2022/10/23 03:48:13;;;;;;;26.67;13.20;;;9.40;99.90;;;;;;5034144;28;20041;-72
2022/10/23 03:50:39;;;;;;;24.93;13.10;;;9.40;99.90;;;;;;5015992;28;20048;-72
2022/10/23 03:53:05;;;;;;;20.67;12.50;;;9.40;99.90;;;;;;5016427;28;20771;-72
2022/10/23 03:55:30;;;;;;;23.97;13.37;;;9.40;99.90;;;;;;5018318;28;20037;-72
2022/10/23 03:57:56;;;;;;;23.77;13.47;;;9.40;99.90;;;;;;5010792;28;20041;-72
2022/10/23 04:00:22;;;;;;;22.73;13.70;;;9.40;99.90;;;;;;5037238;28;20053;-72
2022/10/23 04:02:47;;;;;;;24.80;12.67;;;9.40;99.90;;;;;;5006986;28;20045;-72
2022/10/23 04:05:13;;;;;;;22.07;14.07;;;9.40;99.90;;;;;;4994811;28;20038;-72
2022/10/23 04:07:39;;;;;;;21.47;13.20;;;9.40;99.90;;;;;;5027696;28;20088;-72
2022/10/23 04:10:06;;;;;;;21.50;13.70;;;9.40;99.90;;;;;;5026709;28;20367;-72
2022/10/23 04:12:33;;;;;;;22.63;12.60;;;9.40;99.90;;;;;;5027086;28;20053;-72
2022/10/23 04:14:58;;;;;;;25.30;13.82;;;9.40;99.90;;;;;;5026982;28;20087;-72
2022/10/23 04:17:24;;;;;;;22.77;13.07;;;9.40;99.90;;;;;;5011887;28;20029;-72
2022/10/23 04:19:50;;;;;;;23.77;13.37;;;9.40;99.90;;;;;;5027989;28;20068;-72
2022/10/23 04:22:15;;;;;;;21.93;12.73;;;9.40;99.90;;;;;;5011306;28;20103;-72
2022/10/23 04:24:45;;;;;;;22.00;12.27;;;9.40;99.90;;;;;;5023586;28;20054;-72
2022/10/23 04:27:12;;;;;;;21.47;12.53;;;9.40;99.90;;;;;;5014409;28;20053;-72
2022/10/23 04:29:37;;;;;;;26.20;13.53;;;9.40;99.90;;;;;;5044235;28;20287;-72
2022/10/23 04:32:03;;;;;;;19.20;12.07;;;9.40;99.90;;;;;;5031661;28;20284;-72
2022/10/23 04:34:29;;;;;;;20.10;12.87;;;9.40;99.90;;;;;;5011761;28;20694;-72
2022/10/23 04:36:54;;;;;;;19.27;12.40;;;9.40;99.90;;;;;;5030089;28;20037;-72
2022/10/23 04:39:20;;;;;;;21.47;12.90;;;9.40;99.90;;;;;;5013067;28;20041;-72
2022/10/23 04:41:47;;;;;;;22.73;13.03;;;9.40;99.90;;;;;;5012175;28;20045;-72
2022/10/23 04:44:12;;;;;;;25.17;13.13;;;9.40;99.90;;;;;;5029872;28;20048;-72
2022/10/23 04:46:38;;;;;;;20.70;12.90;;;9.40;99.90;;;;;;5031154;28;20291;-72
2022/10/23 04:49:04;;;;;;;20.23;13.07;;;9.40;99.90;;;;;;5012659;28;20053;-72
2022/10/23 04:51:29;;;;;;;21.03;12.50;;;9.40;99.90;;;;;;5015057;28;20164;-72
2022/10/23 04:53:55;;;;;;;19.63;13.07;;;9.40;99.90;;;;;;5030905;28;20038;-72
2022/10/23 04:56:21;;;;;;;23.47;13.13;;;9.40;99.90;;;;;;5033198;28;20045;-72
2022/10/23 04:58:46;;;;;;;19.10;13.17;;;9.40;99.90;;;;;;5032482;28;20041;-72
2022/10/23 05:01:12;;;;;;;20.87;13.37;;;9.40;99.90;;;;;;5015500;28;20496;-72
2022/10/23 05:03:38;;;;;;;27.93;13.80;;;9.40;99.90;;;;;;4993916;28;20037;-72
2022/10/23 05:06:04;;;;;;;23.27;13.47;;;9.30;99.90;;;;;;5030134;28;20068;-72
2022/10/23 05:08:30;;;;;;;24.80;14.55;;;9.30;99.90;;;;;;5017763;28;20106;-72
2022/10/23 05:10:56;;;;;;;27.15;13.35;;;9.30;99.90;;;;;;5012242;28;20048;-72
2022/10/23 05:13:22;;;;;;;24.00;13.83;;;9.30;99.90;;;;;;4995203;28;20045;-72
2022/10/23 05:15:50;;;;;;;21.03;13.93;;;9.30;99.90;;;;;;5029186;28;20525;-72
2022/10/23 05:18:24;;;;;;;19.10;13.30;;;9.20;99.90;;;;;;5012115;28;20280;-72
2022/10/23 05:20:56;;;;;;;23.97;14.27;;;9.20;99.90;;;;;;5037220;28;20427;-72
2022/10/23 05:23:25;;;;;;;22.38;13.70;;;9.20;99.90;;;;;;5011711;28;20314;-72
2022/10/23 05:25:51;;;;;;;21.90;14.02;;;9.20;99.90;;;;;;5025564;28;20060;-72
2022/10/23 05:28:17;;;;;;;28.55;14.90;;;9.20;99.90;;;;;;5012312;28;20470;-72
2022/10/23 05:30:43;;;;;;;22.60;14.17;;;9.10;99.90;;;;;;5029978;28;20104;-72
2022/10/23 05:33:10;;;;;;;24.80;14.57;;;9.10;99.90;;;;;;5028177;28;20041;-72
2022/10/23 05:35:37;;;;;;;30.05;13.90;;;9.10;99.90;;;;;;5027373;28;20838;-72
2022/10/23 05:38:04;;;;;;;22.40;14.65;;;9.10;99.90;;;;;;5010276;28;20041;-72
2022/10/23 05:40:30;;;;;;;28.35;15.02;;;9.10;99.90;;;;;;5031110;28;20528;-72
2022/10/23 05:42:56;;;;;;;24.20;14.63;;;9.10;99.90;;;;;;5008537;28;20042;-72
2022/10/23 05:45:21;;;;;;;28.80;15.10;;;9.10;99.90;;;;;;5026963;28;20048;-72
2022/10/23 05:47:48;;;;;;;24.80;15.17;;;9.10;99.90;;;;;;5016426;28;20052;-72
2022/10/23 05:50:14;;;;;;;24.35;15.18;;;9.10;99.90;;;;;;5033929;28;20075;-72
2022/10/23 05:52:40;;;;;;;23.50;15.40;;;9.00;99.90;;;;;;5033832;28;20404;-72
2022/10/23 05:55:06;;;;;;;26.57;14.63;;;9.00;99.90;;;;;;5002434;28;20040;-72
2022/10/23 05:57:32;;;;;;;27.25;16.15;;;9.00;99.90;;;;;;5020996;28;20118;-72
2022/10/23 05:59:58;;;;;;;28.27;16.52;;;9.00;99.90;;;;;;5027229;28;20107;-72
2022/10/23 06:02:24;;;;;;;26.77;15.83;;;9.10;99.90;;;;;;5028059;28;20059;-72
2022/10/23 06:04:50;;;;;;;29.97;16.87;;;9.10;99.90;;;;;;5029318;28;20045;-72
2022/10/23 06:07:16;;;;;;;27.47;15.30;;;9.10;99.90;;;;;;5036200;28;20045;-72
2022/10/23 06:09:41;;;;;;;30.03;16.27;;;9.10;99.90;;;;;;4995421;28;20101;-72
2022/10/23 06:12:07;;;;;;;30.90;16.20;;;9.10;99.90;;;;;;5011301;28;20052;-72
2022/10/23 06:14:33;;;;;;;33.30;17.10;;;9.10;99.90;;;;;;4995941;28;20453;-72
2022/10/23 06:16:58;;;;;;;29.63;17.37;;;9.20;99.90;;;;;;5028546;28;20045;-72
2022/10/23 06:19:24;;;;;;;26.43;16.33;;;9.20;99.90;;;;;;4996743;28;20047;-72
2022/10/23 06:21:50;;;;;;;32.57;16.53;;;9.30;99.90;;;;;;5032511;28;20084;-72
2022/10/23 06:24:15;;;;;;;32.90;16.33;;;9.30;99.90;;;;;;5032271;28;20041;-72
2022/10/23 06:26:41;;;;;;;28.17;16.10;;;9.30;99.90;;;;;;5032715;28;20053;-72
2022/10/23 06:29:07;;;;;;;34.27;17.20;;;9.30;99.90;;;;;;5033347;28;20113;-72
2022/10/23 06:31:33;;;;;;;29.63;16.93;;;9.40;99.90;;;;;;5002878;28;20386;-72
2022/10/23 06:33:58;;;;;;;26.53;16.37;;;9.40;99.90;;;;;;5034721;28;20053;-72
2022/10/23 06:36:25;;;;;;;27.50;16.10;;;9.40;99.90;;;;;;5018048;28;20044;-72
2022/10/23 06:38:51;;;;;;;33.08;17.25;;;9.50;99.90;;;;;;5045570;28;20233;-72
2022/10/23 06:41:20;;;;;;;32.43;17.53;;;9.50;99.90;;;;;;5026744;28;20593;-72
2022/10/23 06:43:47;;;;;;;30.03;16.83;;;9.50;99.90;;;;;;5040292;28;20116;-72
2022/10/23 06:46:13;;;;;;;29.67;17.70;;;9.60;99.90;;;;;;5026776;28;20286;-72
2022/10/23 06:48:41;;;;;;;29.57;16.63;;;9.60;99.90;;;;;;5040275;28;20042;-72
2022/10/23 06:51:10;;;;;;;28.90;16.63;;;9.60;99.90;;;;;;5023939;28;20099;-72
2022/10/23 06:53:36;;;;;;;30.70;16.60;;;9.60;99.90;;;;;;5041417;28;20046;-72
2022/10/23 06:56:04;;;;;;;24.77;16.67;;;9.70;99.90;;;;;;5044403;28;20109;-72
2022/10/23 06:58:32;;;;;;;28.75;16.45;;;9.70;99.90;;;;;;5031236;28;20429;-72
2022/10/23 07:01:03;;;;;;;36.78;17.40;;;9.70;99.90;;;;;;5042639;28;20061;-72
2022/10/23 07:03:29;;;;;;;32.03;17.40;;;9.80;99.90;;;;;;5042177;28;20436;-72
2022/10/23 07:05:54;;;;;;;23.67;16.37;;;9.80;99.90;;;;;;5042361;28;20294;-72
2022/10/23 07:08:20;;;;;;;31.77;16.83;;;9.90;99.90;;;;;;5042866;28;20315;-72
2022/10/23 07:10:47;;;;;;;33.20;16.50;;;9.90;99.90;;;;;;5028250;28;20056;-72
2022/10/23 07:13:13;;;;;;;34.50;17.80;;;10.00;99.90;;;;;;5025713;28;20045;-72
2022/10/23 07:15:39;;;;;;;35.77;17.03;;;10.10;99.90;;;;;;5050203;28;20322;-72
2022/10/23 07:18:05;;;;;;;29.73;16.47;;;10.10;99.90;;;;;;5040118;28;20045;-72
2022/10/23 07:20:31;;;;;;;32.17;17.30;;;10.20;99.90;;;;;;5026481;28;20284;-72
2022/10/23 07:22:57;;;;;;;25.83;16.67;;;10.30;99.90;;;;;;5042561;28;20280;-72
2022/10/23 07:25:24;;;;;;;30.03;16.73;;;10.30;99.90;;;;;;5010689;28;20295;-72
2022/10/23 07:27:51;;;;;;;28.77;16.53;;;10.40;99.90;;;;;;5044006;28;20499;-72
2022/10/23 07:30:17;;;;;;;32.57;16.13;;;10.50;99.90;;;;;;5042529;28;20335;-72
2022/10/23 07:32:43;;;;;;;29.63;16.97;;;10.50;99.90;;;;;;5044219;28;20355;-72
2022/10/23 07:35:11;;;;;;;28.97;16.07;;;10.60;99.90;;;;;;5043900;28;20695;-72
2022/10/23 07:37:37;;;;;;;30.20;16.47;;;10.60;99.90;;;;;;5027081;28;20280;-72
2022/10/23 07:40:04;;;;;;;31.13;16.17;;;10.70;99.90;;;;;;5026911;28;20286;-72
2022/10/23 07:42:30;;;;;;;31.23;16.37;;;10.70;99.90;;;;;;5050536;28;20041;-72
2022/10/23 07:44:56;;;;;;;31.87;16.53;;;10.80;99.90;;;;;;5036984;28;20384;-72
2022/10/23 07:47:22;;;;;;;26.93;16.77;;;10.80;99.90;;;;;;5006402;28;20053;-72
2022/10/23 07:49:48;;;;;;;27.90;15.13;;;10.90;99.90;;;;;;5036627;28;20037;-72
2022/10/23 07:52:13;;;;;;;29.97;15.97;;;10.90;99.90;;;;;;5044318;28;20109;-72
2022/10/23 07:54:39;;;;;;;30.60;15.33;;;11.00;99.90;;;;;;5039498;28;20103;-72
2022/10/23 07:57:06;;;;;;;28.10;15.57;;;11.00;99.90;;;;;;5043790;28;20065;-72
2022/10/23 07:59:32;;;;;;;28.03;15.20;;;11.10;99.90;;;;;;5037414;28;20064;-73
2022/10/23 08:01:58;;;;;;;33.13;15.50;;;11.10;99.90;;;;;;5038339;28;20291;-72
2022/10/23 08:04:25;;;;;;;27.13;14.83;;;11.20;99.90;;;;;;5021769;28;20308;-72
2022/10/23 08:06:51;;;;;;;22.23;13.73;;;11.20;99.90;;;;;;5020626;28;20299;-72
2022/10/23 08:09:17;;;;;;;26.30;14.60;;;11.20;99.90;;;;;;5004336;28;20802;-72
2022/10/23 08:11:43;;;;;;;24.33;14.23;;;11.30;99.90;;;;;;5041532;28;20355;-72
2022/10/23 08:14:08;;;;;;;24.70;13.73;;;11.30;99.90;;;;;;5036333;28;20516;-72
2022/10/23 08:16:36;;;;;;;27.50;13.40;;;11.40;99.90;;;;;;5040213;28;20128;-72
2022/10/23 08:19:04;;;;;;;26.17;14.00;;;11.40;99.90;;;;;;5018716;28;20037;-72
2022/10/23 08:21:30;;;;;;;25.90;14.17;;;11.50;99.90;;;;;;5036978;28;20315;-72
2022/10/23 08:23:57;;;;;;;28.03;14.27;;;11.50;99.90;;;;;;5031844;28;20280;-72
2022/10/23 08:26:25;;;;;;;25.67;14.67;;;11.60;99.90;;;;;;5034985;28;20143;-72
2022/10/23 08:28:51;;;;;;;21.57;14.20;;;11.70;99.90;;;;;;5023322;28;20280;-72
2022/10/23 08:31:19;;;;;;;23.03;14.00;;;11.70;99.90;;;;;;5017790;28;20280;-72
2022/10/23 08:33:45;;;;;;;20.50;12.93;;;11.80;99.90;;;;;;5038249;28;20300;-72
2022/10/23 08:36:29;;;;;;;22.10;13.33;;;11.90;99.90;;;;;;5016750;28;20367;-72
2022/10/23 08:38:56;;;;;;;22.40;12.80;;;12.00;99.90;;;;;;5032074;28;20511;-72
2022/10/23 08:41:30;;;;;;;19.80;12.37;;;12.10;99.90;;;;;;5030950;28;20340;-73
2022/10/23 08:44:02;;;;;;;21.83;12.40;;;12.20;99.90;;;;;;5030307;28;20779;-72
2022/10/23 08:46:33;;;;;;;18.63;12.57;;;12.30;99.90;;;;;;5012387;28;20768;-72
2022/10/23 08:49:36;;;;;;;19.07;12.23;;;12.30;99.90;;;;;;5030324;28;20342;-73
2022/10/23 08:52:19;;;;;;;18.40;11.83;;;12.40;99.90;;;;;;5026932;28;20288;-72
2022/10/23 08:55:06;;;;;;;19.67;11.60;;;12.40;99.90;;;;;;5025150;28;20336;-72
2022/10/23 08:57:37;;;;;;;20.87;11.10;;;12.50;99.90;;;;;;5009211;28;20280;-73
2022/10/23 09:00:11;;;;;;;21.60;12.40;;;12.60;99.90;;;;;;5024649;28;20288;-73
2022/10/23 09:02:44;;;;;;;16.70;11.53;;;12.70;99.90;;;;;;5025744;28;20280;-72
2022/10/23 09:05:18;;;;;;;18.80;12.20;;;12.70;99.90;;;;;;5023761;28;20319;-72
2022/10/23 09:07:49;;;;;;;17.70;11.10;;;12.80;99.90;;;;;;5017041;28;20284;-73
2022/10/23 09:10:33;;;;;;;15.90;11.00;;;12.90;99.90;;;;;;5019536;28;20354;-72
2022/10/23 09:13:40;;;;;;;17.63;10.73;;;13.00;99.90;;;;;;5007070;28;20323;-73
2022/10/23 09:16:20;;;;;;;15.97;11.03;;;13.00;99.90;;;;;;4986171;28;20319;-72
2022/10/23 09:18:48;;;;;;;18.77;10.53;;;13.10;99.90;;;;;;5023575;28;20276;-73
2022/10/23 09:21:15;;;;;;;16.40;10.47;;;13.20;99.90;;;;;;5024938;28;20314;-73
2022/10/23 09:23:41;;;;;;;15.63;10.17;;;13.30;99.90;;;;;;4991374;28;20353;-72
2022/10/23 09:26:13;;;;;;;15.20;10.40;;;13.30;99.90;;;;;;5007548;28;20295;-73
2022/10/23 09:28:46;;;;;;;18.43;10.33;;;13.40;99.90;;;;;;5023833;28;20288;-73
2022/10/23 09:31:12;;;;;;;16.83;9.63;;;13.50;99.90;;;;;;5042323;28;20811;-73
2022/10/23 09:33:39;;;;;;;18.60;10.13;;;13.50;99.90;;;;;;5024792;28;20602;-73
2022/10/23 09:36:16;;;;;;;18.23;10.13;;;13.60;99.90;;;;;;5025280;28;20044;-74
2022/10/23 09:38:45;;;;;;;13.80;9.57;;;13.60;99.90;;;;;;5040321;28;21085;-73
2022/10/23 09:41:21;;;;;;;13.57;9.53;;;13.70;99.90;;;;;;5025877;28;20284;-73
2022/10/23 09:43:59;;;;;;;12.30;9.43;;;13.70;99.90;;;;;;5042313;28;20291;-73
2022/10/23 09:46:43;;;;;;;16.43;9.07;;;13.80;99.90;;;;;;5043828;28;20295;-73
2022/10/23 09:49:17;;;;;;;13.70;8.73;;;13.90;99.90;;;;;;5011073;28;20500;-73
2022/10/23 09:52:06;;;;;;;14.87;10.00;;;13.90;99.90;;;;;;5026646;28;20307;-73
2022/10/23 09:54:44;;;;;;;15.07;9.93;;;14.00;99.90;;;;;;5023018;28;20331;-73
2022/10/23 09:57:22;;;;;;;15.77;9.00;;;14.00;99.90;;;;;;5025133;28;20370;-73
2022/10/23 10:00:24;;;;;;;12.73;8.80;;;14.10;99.90;;;;;;5024535;28;20296;-73
2022/10/23 10:03:01;;;;;;;14.67;8.67;;;14.20;99.90;;;;;;5025030;28;20354;-72
2022/10/23 10:05:34;;;;;;;12.33;8.10;;;14.20;99.90;;;;;;5024352;28;20821;-73
2022/10/23 10:08:18;;;;;;;15.33;8.40;;;14.30;99.90;;;;;;5024865;28;20718;-73
2022/10/23 10:10:49;;;;;;;14.07;8.23;;;14.30;99.90;;;;;;5019566;28;20368;-73
2022/10/23 10:13:30;;;;;;;13.50;8.43;;;14.40;99.90;;;;;;5031838;28;20303;-73
2022/10/23 10:16:02;;;;;;;13.20;8.53;;;14.50;99.90;;;;;;5042047;28;20276;-72
2022/10/23 10:18:42;;;;;;;14.30;8.07;;;14.50;99.90;;;;;;5013119;28;20276;-73
2022/10/23 10:21:27;;;;;;;14.93;8.33;;;14.60;99.90;;;;;;5028735;28;20342;-73
2022/10/23 10:24:03;;;;;;;12.30;6.50;;;14.70;99.90;;;;;;5032073;28;20284;-73
2022/10/23 10:26:55;;;;;;;15.63;8.03;;;14.70;99.90;;;;;;5014904;28;20052;-73
2022/10/23 10:29:47;;;;;;;10.13;7.27;;;14.90;99.90;;;;;;5041159;28;20288;-73
2022/10/23 10:32:26;;;;;;;13.30;7.37;;;15.00;99.90;;;;;;5017225;28;20284;-73
2022/10/23 10:35:02;;;;;;;10.87;7.23;;;15.00;99.90;;;;;;5029974;28;20338;-73
2022/10/23 10:37:52;;;;;;;9.70;7.20;;;15.10;99.90;;;;;;5030985;28;20695;-72
2022/10/23 10:40:36;;;;;;;9.60;6.37;;;15.20;99.90;;;;;;5013941;28;20686;-72
2022/10/23 10:43:04;;;;;;;11.17;6.90;;;15.20;99.90;;;;;;5031243;28;20487;-72
2022/10/23 10:45:46;;;;;;;11.20;6.60;;;15.30;99.90;;;;;;5014757;28;20288;-72
2022/10/23 10:48:39;;;;;;;12.40;6.57;;;15.40;99.90;;;;;;5014849;28;20323;-72
2022/10/23 10:51:09;;;;;;;11.70;5.90;;;15.50;99.90;;;;;;5030746;28;20285;-73
2022/10/23 10:53:38;;;;;;;10.20;5.70;;;15.50;99.90;;;;;;5032396;28;20839;-72
2022/10/23 10:56:07;;;;;;;10.40;5.37;;;15.60;99.90;;;;;;5017945;28;20641;-72
2022/10/23 10:58:54;;;;;;;8.67;5.47;;;15.60;99.90;;;;;;5034529;28;20284;-72
2022/10/23 11:01:25;;;;;;;11.17;6.03;;;15.70;99.90;;;;;;5013890;28;20300;-72
2022/10/23 11:03:57;;;;;;;12.13;5.67;;;15.70;99.90;;;;;;5020429;28;20283;-72
2022/10/23 11:06:28;;;;;;;11.37;5.17;;;15.80;99.90;;;;;;5035601;28;20324;-72
2022/10/23 11:08:55;;;;;;;9.63;4.63;;;15.80;99.90;;;;;;5033553;28;20272;-73
2022/10/23 11:11:34;;;;;;;13.00;5.80;;;15.80;99.90;;;;;;5000413;28;20291;-72
2022/10/23 11:14:01;;;;;;;7.87;5.03;;;15.90;99.90;;;;;;5016700;28;20296;-72
2022/10/23 11:16:38;;;;;;;10.37;5.43;;;15.90;99.90;;;;;;5035384;28;20275;-72
2022/10/23 11:19:32;;;;;;;9.23;4.90;;;16.00;99.90;;;;;;5036208;28;20307;-72
2022/10/23 11:22:40;;;;;;;11.77;6.07;;;16.00;99.90;;;;;;5045662;28;20281;-72
2022/10/23 11:25:32;;;;;;;9.37;4.67;;;16.00;99.90;;;;;;5024309;28;20284;-72
2022/10/23 11:28:16;;;;;;;7.10;4.53;;;16.00;99.90;;;;;;5006086;28;20292;-72
2022/10/23 11:31:06;;;;;;;7.33;4.80;;;16.00;99.90;;;;;;5022107;28;20319;-73
2022/10/23 11:34:11;;;;;;;6.83;4.20;;;16.00;99.90;;;;;;5033857;28;20311;-72
2022/10/23 11:36:44;;;;;;;9.60;4.30;;;16.00;99.90;;;;;;5015738;28;20280;-72
2022/10/23 11:39:26;;;;;;;9.20;4.50;;;16.00;99.90;;;;;;5015993;28;20276;-72
2022/10/23 11:41:51;;;;;;;9.40;4.13;;;16.00;99.90;;;;;;5025111;28;20269;-72
2022/10/23 11:44:39;;;;;;;7.60;3.63;;;15.90;99.90;;;;;;5023771;28;20276;-72
2022/10/23 11:47:29;;;;;;;8.13;3.97;;;15.90;99.90;;;;;;5043709;28;20052;-73
2022/10/23 11:50:07;;;;;;;9.63;4.20;;;15.90;99.90;;;;;;5022282;28;20675;-73
2022/10/23 11:52:35;;;;;;;10.33;4.10;;;15.80;99.90;;;;;;5027065;28;20279;-72
2022/10/23 11:55:23;;;;;;;8.30;3.90;;;15.80;99.90;;;;;;5028113;28;21217;-72
2022/10/23 11:58:20;;;;;;;6.80;4.03;;;15.80;99.90;;;;;;5037211;28;20857;-72
2022/10/23 12:01:14;;;;;;;6.90;3.90;;;15.80;99.90;;;;;;5014216;28;20802;-72
2022/10/23 12:03:54;;;;;;;9.93;3.60;;;15.80;99.90;;;;;;5018168;28;20295;-72
2022/10/23 12:06:44;;;;;;;7.43;3.70;;;15.70;99.90;;;;;;5032183;28;20284;-72
2022/10/23 12:09:24;;;;;;;9.27;3.73;;;15.70;99.90;;;;;;5029697;28;20341;-72
2022/10/23 12:12:14;;;;;;;7.43;3.77;;;15.70;99.90;;;;;;5037195;28;20440;-72
2022/10/23 12:14:47;;;;;;;9.20;3.80;;;15.70;99.90;;;;;;5033607;28;20307;-72
2022/10/23 12:17:22;;;;;;;7.67;3.90;;;15.60;99.90;;;;;;5035771;28;20319;-72
2022/10/23 12:20:02;;;;;;;7.65;3.67;;;15.60;99.90;;;;;;5031711;28;20635;-72
2022/10/23 12:22:38;;;;;;;6.73;3.80;;;15.60;99.90;;;;;;5029687;28;20042;-72
2022/10/23 12:25:13;;;;;;;8.90;3.97;;;15.60;99.90;;;;;;5031601;28;20288;-73
2022/10/23 12:27:51;;;;;;;;;;;15.50;99.90;;;;;;5032411;28;20354;-72
2022/10/23 12:30:19;;;;;;;8.10;3.77;;;15.50;99.90;;;;;;5039682;28;19920;-72
2022/10/23 12:33:01;;;;;;;6.80;3.77;;;15.50;99.90;;;;;;5036424;28;20283;-72
2022/10/23 12:35:56;;;;;;;8.53;3.50;;;15.60;99.90;;;;;;5029635;28;20280;-73
2022/10/23 12:38:22;;;;;;;;;;;15.60;99.90;;;;;;5030862;28;20564;-72
2022/10/23 12:41:03;;;;;;;7.73;3.13;;;15.60;99.90;;;;;;5030410;28;19956;-72
2022/10/23 12:43:35;;;;;;;6.03;3.60;;;15.60;99.90;;;;;;5029997;28;20041;-72
2022/10/23 12:46:40;;;;;;;7.27;3.20;;;15.60;99.90;;;;;;5024945;28;20596;-72
2022/10/23 12:49:21;;;;;;;9.30;3.73;;;15.60;99.90;;;;;;4954665;28;20567;-72
2022/10/23 12:52:17;;;;;;;6.37;3.43;;;15.70;99.90;;;;;;5025167;28;20481;-72
2022/10/23 12:54:48;;;;;;;;;;;15.70;99.90;;;;;;5020118;28;20301;-73
2022/10/23 12:57:29;;;;;;;9.93;4.40;;;15.60;99.90;;;;;;5036807;28;19917;-72
2022/10/23 12:59:57;;;;;;;11.67;4.43;;;15.60;99.90;;;;;;5024998;28;20288;-73
2022/10/23 13:02:26;;;;;;;8.50;4.83;;;15.60;99.90;;;;;;5014863;28;20292;-72
2022/10/23 13:04:54;;;;;;;8.37;4.20;;;15.60;99.90;;;;;;5028987;28;20295;-72